KEBS/EBS METAR and TAF weather

Enter ICAO airport designator
Station Type Date Time Source
KEBS METAR 2020/10/29 17:15 UTC NOAA

KEBS 291715Z AUTO 34017KT 10SM SCT018 SCT023 OVC029 04/00 A3010 RMK AO2


Station Type Date Time Source
KEBS Decoded METAR 2020/10/29 17:15 UTC NOAA

Webster City, IA, United States (KEBS) 42-26N 093-52W
Oct 29, 2020 - 01:15 PM EDT / 2020.10.29 1715 UTC
Wind: from the NNW (340 degrees) at 20 MPH (17 KT):0
Visibility: 10 mile(s):0
Sky conditions: overcast
Temperature: 39 F (4 C)
Dew Point: 32 F (0 C)
Relative Humidity: 75%
Pressure (altimeter): 30.1 in. Hg (1019 hPa)
ob: KEBS 291715Z AUTO 34017KT 10SM SCT018 SCT023 OVC029 04/00 A3010 RMK AO2
cycle: 17

Station Type Date Time Source
KEBS TAF UTC NOAA

Error!

Example: see airport list